Abbeville, South Carolina
Current Conditions -  °F | °C
As of 4:56 AM on Tuesday 21 Oct 2014 (Local Time) from KGRD Reporting Station
Clear Clear  
Wind Chill: 52°   Ceiling: Unl
Heat Index: 52°   Visibility: 10mi
Dew Point: 50°   Wind: 5mph
Humidity: 93%   Direction: 240°WSW
Pressure: 29.97"   Gusts: NA
Location:  34.18°N, 82.38°W
Report Text: KGRD 210856Z AUTO 24004KT 10SM CLR 11/10 A2997 RMK AO2 SLP146 T01110100 56008
Loading
Personal Weather Stations






























Interactive Weather Map
Tropical Storm Tracking
New forecast layout! Learn more

10-Day Weather Forecast

Advertisements
Track Severe Weather on mobile